createdAt,value
2017-12-01T00:01:33.647Z,11.37
2017-12-01T00:04:01.355Z,10.47
2017-12-01T00:06:29.063Z,10.50
2017-12-01T00:08:56.719Z,11.07
2017-12-01T00:11:24.428Z,11.40
2017-12-01T00:13:52.134Z,10.27
2017-12-01T00:16:19.817Z,10.43
2017-12-01T00:18:47.573Z,11.50
2017-12-01T00:21:15.266Z,10.27
2017-12-01T00:23:42.896Z,10.10
2017-12-01T00:26:10.600Z,9.90
2017-12-01T00:28:38.953Z,10.47
2017-12-01T00:31:06.700Z,10.37
2017-12-01T00:33:34.345Z,11.10
2017-12-01T00:36:02.152Z,11.07
2017-12-01T00:38:29.784Z,10.73
2017-12-01T00:40:57.557Z,11.27
2017-12-01T00:43:25.280Z,11.47
2017-12-01T00:45:53.001Z,11.60
2017-12-01T00:48:20.668Z,10.97
2017-12-01T00:50:48.398Z,11.70
2017-12-01T00:53:16.173Z,12.00
2017-12-01T00:55:43.796Z,12.37
2017-12-01T00:58:11.541Z,12.20
2017-12-01T01:00:39.177Z,11.70
2017-12-01T01:03:06.917Z,12.30
2017-12-01T01:05:34.546Z,11.40
2017-12-01T01:08:02.223Z,12.17
2017-12-01T01:10:29.851Z,12.60
2017-12-01T01:12:57.602Z,12.53
2017-12-01T01:15:25.259Z,11.80
2017-12-01T01:17:53.053Z,12.20
2017-12-01T01:20:20.781Z,12.63
2017-12-01T01:22:48.462Z,10.70
2017-12-01T01:25:16.216Z,10.90
2017-12-01T01:27:43.968Z,12.33
2017-12-01T01:30:11.593Z,11.10
2017-12-01T01:32:39.303Z,11.30
2017-12-01T01:35:06.979Z,11.70
2017-12-01T01:37:34.718Z,11.30
2017-12-01T01:40:02.402Z,11.67
2017-12-01T01:42:30.055Z,12.87
2017-12-01T01:44:57.772Z,12.10
2017-12-01T01:47:25.428Z,12.30
2017-12-01T01:49:53.117Z,11.40
2017-12-01T01:52:20.782Z,11.23
2017-12-01T01:54:48.547Z,11.40
2017-12-01T01:57:16.213Z,10.43
2017-12-01T01:59:43.924Z,10.20
2017-12-01T02:02:11.616Z,11.67
2017-12-01T02:04:39.323Z,11.40
2017-12-01T02:07:07.045Z,11.80
2017-12-01T02:09:34.737Z,11.00
2017-12-01T02:12:02.382Z,10.37
2017-12-01T02:14:30.136Z,9.80
2017-12-01T02:16:57.779Z,10.10
2017-12-01T02:19:25.474Z,11.10
2017-12-01T02:21:53.179Z,10.50
2017-12-01T02:24:20.821Z,11.73
2017-12-01T02:26:48.500Z,11.60
2017-12-01T02:29:16.207Z,11.10
2017-12-01T02:31:43.906Z,11.17
2017-12-01T02:34:11.610Z,11.10
2017-12-01T02:36:39.294Z,10.50
2017-12-01T02:39:07.004Z,11.23
2017-12-01T02:41:34.780Z,10.20
2017-12-01T02:44:02.491Z,10.70
2017-12-01T02:46:30.265Z,10.30
2017-12-01T02:48:57.918Z,10.83
2017-12-01T02:51:25.703Z,10.90
2017-12-01T02:53:53.433Z,11.60
2017-12-01T02:56:21.134Z,11.37
2017-12-01T02:58:48.836Z,11.17
2017-12-01T03:01:16.604Z,12.43
2017-12-01T03:03:44.247Z,13.40
2017-12-01T03:06:12.022Z,12.20
2017-12-01T03:08:39.729Z,11.47
2017-12-01T03:11:07.446Z,13.47
2017-12-01T03:13:35.179Z,13.47
2017-12-01T03:16:02.913Z,13.00
2017-12-01T03:18:30.605Z,12.70
2017-12-01T03:20:58.297Z,9.53
2017-12-01T03:23:26.044Z,11.10
2017-12-01T03:25:54.047Z,8.70
2017-12-01T03:28:21.832Z,8.90
2017-12-01T03:30:49.614Z,9.60
2017-12-01T03:33:17.388Z,9.57
2017-12-01T03:35:45.079Z,9.83
2017-12-01T03:38:12.832Z,9.93
2017-12-01T03:40:42.219Z,11.30
2017-12-01T03:43:11.244Z,9.73
2017-12-01T03:45:40.629Z,8.07
2017-12-01T03:48:09.852Z,8.97
2017-12-01T03:50:40.090Z,10.23
2017-12-01T03:53:09.094Z,10.40
2017-12-01T03:55:37.172Z,9.63
2017-12-01T03:58:05.196Z,9.20
2017-12-01T04:00:33.166Z,9.10
2017-12-01T04:03:01.495Z,10.50
2017-12-01T04:05:29.462Z,11.30
2017-12-01T04:07:57.185Z,10.03
2017-12-01T04:10:25.503Z,9.97
2017-12-01T04:12:55.347Z,10.60
2017-12-01T04:15:25.034Z,11.07
2017-12-01T04:17:53.426Z,11.80
2017-12-01T04:20:22.162Z,10.10
2017-12-01T04:22:49.823Z,11.67
2017-12-01T04:25:17.519Z,11.30
2017-12-01T04:27:45.210Z,10.23
2017-12-01T04:30:12.964Z,10.23
2017-12-01T04:32:40.600Z,9.90
2017-12-01T04:35:08.373Z,10.13
2017-12-01T04:37:36.127Z,9.70
2017-12-01T04:40:04.852Z,9.10
2017-12-01T04:42:32.562Z,9.07
2017-12-01T04:45:00.277Z,8.60
2017-12-01T04:47:28.005Z,8.47
2017-12-01T04:49:55.684Z,9.33
2017-12-01T04:52:23.321Z,8.07
2017-12-01T04:54:51.072Z,7.23
2017-12-01T04:57:18.769Z,8.10
2017-12-01T04:59:46.409Z,7.10
2017-12-01T05:02:14.163Z,8.80
2017-12-01T05:04:41.891Z,7.87
2017-12-01T05:07:09.640Z,9.00
2017-12-01T05:09:37.284Z,8.77
2017-12-01T05:12:05.032Z,8.30
2017-12-01T05:14:32.748Z,7.60
2017-12-01T05:17:00.507Z,6.47
2017-12-01T05:19:28.197Z,7.30
2017-12-01T05:21:55.965Z,8.93
2017-12-01T05:24:23.699Z,6.77
2017-12-01T05:26:51.395Z,7.07
2017-12-01T05:29:19.136Z,7.10
2017-12-01T05:31:46.896Z,7.80
2017-12-01T05:34:14.547Z,8.73
2017-12-01T05:36:42.358Z,8.07
2017-12-01T05:39:10.089Z,6.40
2017-12-01T05:41:37.780Z,7.53
2017-12-01T05:44:05.429Z,8.13
2017-12-01T05:46:33.172Z,8.30
2017-12-01T05:49:00.947Z,10.50
2017-12-01T05:51:28.653Z,7.80
2017-12-01T05:53:56.351Z,9.43
2017-12-01T05:56:24.085Z,8.97
2017-12-01T05:58:51.853Z,6.50
2017-12-01T06:01:19.595Z,5.50
2017-12-01T06:03:47.316Z,5.83
2017-12-01T06:06:14.970Z,7.73
2017-12-01T06:08:42.688Z,5.20
2017-12-01T06:11:10.365Z,6.67
2017-12-01T06:13:38.175Z,5.70
2017-12-01T06:16:05.915Z,7.43
2017-12-01T06:18:33.607Z,7.30
2017-12-01T06:21:01.242Z,7.70
2017-12-01T06:23:28.940Z,7.03
2017-12-01T06:25:56.609Z,7.60
2017-12-01T06:28:24.390Z,8.00
2017-12-01T06:30:52.125Z,8.03
2017-12-01T06:33:19.896Z,8.47
2017-12-01T06:35:47.662Z,8.57
2017-12-01T06:38:15.506Z,9.00
2017-12-01T06:40:43.642Z,9.10
2017-12-01T06:43:11.421Z,9.97
2017-12-01T06:45:39.141Z,10.80
2017-12-01T06:48:06.902Z,8.33
2017-12-01T06:50:34.652Z,9.80
2017-12-01T06:53:02.372Z,7.80
2017-12-01T06:55:30.024Z,9.47
2017-12-01T06:57:57.708Z,9.90
2017-12-01T07:00:25.348Z,9.93
2017-12-01T07:02:53.137Z,10.70
2017-12-01T07:05:21.728Z,8.93
2017-12-01T07:07:49.485Z,8.13
2017-12-01T07:10:17.192Z,10.27
2017-12-01T07:12:44.942Z,10.33
2017-12-01T07:15:12.674Z,12.33
2017-12-01T07:17:40.428Z,10.60
2017-12-01T07:20:08.152Z,11.97
2017-12-01T07:22:35.944Z,11.53
2017-12-01T07:25:03.637Z,11.73
2017-12-01T07:27:31.351Z,11.67
2017-12-01T07:29:59.123Z,17.23
2017-12-01T07:32:26.821Z,12.33
2017-12-01T07:34:54.627Z,13.63
2017-12-01T07:37:22.451Z,10.60
2017-12-01T07:39:50.191Z,15.83
2017-12-01T07:42:18.019Z,14.17
2017-12-01T07:44:51.274Z,13.33
2017-12-01T07:47:19.040Z,12.10
2017-12-01T07:49:46.768Z,14.57
2017-12-01T07:52:14.561Z,12.67
2017-12-01T07:54:42.294Z,13.70
2017-12-01T07:57:15.037Z,13.70
2017-12-01T07:59:42.712Z,13.37
2017-12-01T08:02:10.583Z,13.30
2017-12-01T08:04:38.300Z,13.20
2017-12-01T08:07:06.131Z,13.27
2017-12-01T08:09:33.828Z,13.20
2017-12-01T08:12:01.528Z,13.83
2017-12-01T08:14:29.236Z,13.47
2017-12-01T08:17:08.672Z,14.07
2017-12-01T08:19:36.443Z,14.33
2017-12-01T08:25:16.536Z,13.97
2017-12-01T08:27:44.299Z,12.80
2017-12-01T08:30:11.964Z,13.40
2017-12-01T08:32:39.731Z,11.90
2017-12-01T08:35:07.385Z,12.33
2017-12-01T08:37:35.076Z,12.60
2017-12-01T08:40:02.818Z,10.77
2017-12-01T08:42:30.519Z,13.20
2017-12-01T08:44:58.212Z,13.00
2017-12-01T08:47:25.872Z,13.40
2017-12-01T08:49:53.553Z,13.00
2017-12-01T08:52:21.260Z,13.03
2017-12-01T08:54:49.052Z,12.43
2017-12-01T08:57:16.744Z,12.70
2017-12-01T08:59:44.424Z,14.33
2017-12-01T09:02:12.078Z,13.63
2017-12-01T09:04:40.071Z,13.87
2017-12-01T09:07:07.736Z,12.80
2017-12-01T09:09:35.406Z,15.10
2017-12-01T09:12:03.101Z,13.60
2017-12-01T09:14:30.847Z,13.23
2017-12-01T09:16:58.668Z,14.60
2017-12-01T09:19:26.441Z,17.50
2017-12-01T09:21:54.123Z,14.60
2017-12-01T09:24:21.816Z,13.10
2017-12-01T09:26:49.492Z,14.50
2017-12-01T09:29:18.616Z,12.20
2017-12-01T09:31:46.461Z,11.97
2017-12-01T09:34:14.156Z,11.20
2017-12-01T09:36:41.830Z,12.30
2017-12-01T09:39:09.650Z,13.87
2017-12-01T09:41:37.328Z,11.90
2017-12-01T09:44:05.173Z,12.50
2017-12-01T09:46:32.844Z,10.77
2017-12-01T09:49:00.536Z,11.60
2017-12-01T09:51:28.195Z,13.87
2017-12-01T09:53:55.891Z,11.90
2017-12-01T09:56:23.546Z,14.43
2017-12-01T09:58:51.236Z,12.90
2017-12-01T10:01:18.861Z,13.77
2017-12-01T10:03:46.561Z,11.93
2017-12-01T10:06:14.213Z,14.03
2017-12-01T10:08:41.926Z,12.30
2017-12-01T10:11:09.562Z,12.60
2017-12-01T10:13:37.265Z,13.20
2017-12-01T10:16:04.978Z,12.60
2017-12-01T10:18:32.638Z,12.07
2017-12-01T10:21:00.394Z,13.40
2017-12-01T10:23:28.177Z,10.30
2017-12-01T10:25:55.891Z,12.50
2017-12-01T10:28:23.518Z,12.30
2017-12-01T10:30:51.209Z,11.87
2017-12-01T10:33:18.843Z,13.90
2017-12-01T10:35:46.553Z,13.40
2017-12-01T10:38:14.201Z,9.20
2017-12-01T10:40:41.893Z,12.53
2017-12-01T10:43:09.661Z,11.07
2017-12-01T10:45:37.435Z,13.17
2017-12-01T10:48:05.166Z,11.57
2017-12-01T10:50:32.939Z,12.67
2017-12-01T10:53:00.587Z,13.67
2017-12-01T10:55:28.341Z,12.80
2017-12-01T10:57:55.957Z,8.00
2017-12-01T11:00:23.628Z,11.90
2017-12-01T11:02:51.337Z,13.17
2017-12-01T11:05:19.073Z,12.00
2017-12-01T11:07:46.705Z,11.70
2017-12-01T11:10:14.458Z,13.80
2017-12-01T11:12:42.191Z,13.83
2017-12-01T11:15:09.932Z,11.30
2017-12-01T11:17:37.638Z,13.13
2017-12-01T11:20:05.326Z,12.20
2017-12-01T11:22:35.464Z,10.63
2017-12-01T11:25:03.144Z,12.50
2017-12-01T11:27:30.774Z,11.10
2017-12-01T11:29:58.451Z,11.70
2017-12-01T11:32:26.152Z,13.37
2017-12-01T11:34:53.847Z,12.30
2017-12-01T11:37:21.478Z,11.07
2017-12-01T11:39:49.241Z,11.40
2017-12-01T11:42:17.910Z,9.13
2017-12-01T11:44:45.604Z,10.73
2017-12-01T11:47:13.242Z,11.67
2017-12-01T11:49:40.905Z,10.50
2017-12-01T11:52:08.620Z,10.27
2017-12-01T11:54:36.398Z,11.60
2017-12-01T11:57:04.060Z,11.00
2017-12-01T11:59:31.771Z,8.77
2017-12-01T12:01:59.448Z,9.67
2017-12-01T12:04:27.168Z,9.27
2017-12-01T12:06:54.856Z,9.17
2017-12-01T12:09:22.515Z,10.87
2017-12-01T12:11:50.287Z,9.90
2017-12-01T12:14:17.989Z,8.30
2017-12-01T12:16:45.738Z,8.07
2017-12-01T12:19:13.393Z,6.93
2017-12-01T12:21:41.141Z,8.30
2017-12-01T12:24:08.789Z,8.60
2017-12-01T12:26:36.509Z,9.00
2017-12-01T12:29:04.251Z,10.67
2017-12-01T12:31:31.934Z,8.90
2017-12-01T12:33:59.639Z,8.50
2017-12-01T12:36:27.434Z,9.10
2017-12-01T12:38:55.155Z,9.90
2017-12-01T12:41:22.899Z,10.90
2017-12-01T12:43:50.647Z,11.47
2017-12-01T12:46:18.428Z,9.30
2017-12-01T12:48:46.152Z,11.50
2017-12-01T12:51:13.865Z,12.87
2017-12-01T12:53:41.649Z,11.97
2017-12-01T12:56:09.460Z,12.20
2017-12-01T12:58:37.118Z,11.50
2017-12-01T13:01:04.948Z,10.80
2017-12-01T13:03:32.650Z,9.03
2017-12-01T13:06:00.429Z,9.00
2017-12-01T13:08:28.138Z,10.57
2017-12-01T13:10:55.883Z,9.70
2017-12-01T13:13:23.679Z,9.50
2017-12-01T13:15:51.478Z,7.90
2017-12-01T13:18:19.198Z,8.97
2017-12-01T13:20:46.888Z,9.83
2017-12-01T13:23:14.592Z,9.53
2017-12-01T13:25:42.347Z,10.10
2017-12-01T13:28:10.029Z,10.13
2017-12-01T13:30:37.736Z,10.53
2017-12-01T13:33:05.379Z,9.83
2017-12-01T13:35:33.131Z,10.30
2017-12-01T13:38:00.905Z,10.57
2017-12-01T13:40:28.669Z,10.30
2017-12-01T13:43:00.161Z,9.60
2017-12-01T13:45:33.242Z,10.10
2017-12-01T13:48:01.129Z,10.70
2017-12-01T13:50:28.908Z,10.03
2017-12-01T13:52:56.643Z,9.93
2017-12-01T13:55:24.419Z,9.63
2017-12-01T13:57:52.093Z,10.53
2017-12-01T14:00:19.855Z,9.60
2017-12-01T14:02:47.513Z,8.87
2017-12-01T14:05:15.189Z,8.43
2017-12-01T14:07:42.929Z,9.77
2017-12-01T14:10:10.658Z,10.80
2017-12-01T14:12:38.343Z,11.20
2017-12-01T14:15:05.983Z,10.30
2017-12-01T14:17:33.717Z,12.13
2017-12-01T14:20:01.428Z,11.13
2017-12-01T14:22:29.178Z,10.40
2017-12-01T14:24:56.805Z,10.93
2017-12-01T14:27:24.539Z,10.10
2017-12-01T14:29:52.191Z,10.63
2017-12-01T14:32:19.858Z,10.00
2017-12-01T14:34:47.691Z,10.67
2017-12-01T14:37:15.387Z,9.40
2017-12-01T14:39:43.096Z,9.60
2017-12-01T14:42:10.773Z,9.90
2017-12-01T14:44:38.469Z,10.87
2017-12-01T14:47:06.187Z,10.83
2017-12-01T14:49:33.844Z,9.83
2017-12-01T14:52:01.531Z,10.63
2017-12-01T14:54:29.218Z,11.00
2017-12-01T14:56:56.892Z,10.83
2017-12-01T14:59:24.565Z,12.47
2017-12-01T15:01:52.326Z,12.47
2017-12-01T15:04:19.982Z,12.47
2017-12-01T15:06:47.727Z,11.70
2017-12-01T15:09:15.369Z,11.97
2017-12-01T15:11:43.055Z,11.50
2017-12-01T15:14:10.828Z,12.37
2017-12-01T15:16:38.595Z,10.60
2017-12-01T15:19:07.200Z,11.13
2017-12-01T15:21:34.979Z,8.77
2017-12-01T15:24:02.707Z,9.67
2017-12-01T15:26:30.501Z,10.70
2017-12-01T15:28:58.253Z,11.90
2017-12-01T15:31:26.026Z,10.83
2017-12-01T15:33:53.745Z,9.70
2017-12-01T15:36:21.493Z,12.00
2017-12-01T15:38:49.227Z,11.20
2017-12-01T15:41:17.009Z,11.60
2017-12-01T15:43:44.757Z,11.07
2017-12-01T15:46:12.453Z,10.93
2017-12-01T15:48:40.216Z,10.37
2017-12-01T15:51:07.987Z,10.43
2017-12-01T15:53:35.757Z,11.27
2017-12-01T15:56:03.522Z,10.70
2017-12-01T15:58:31.333Z,10.53
2017-12-01T16:00:59.036Z,10.90
2017-12-01T16:03:26.832Z,10.60
2017-12-01T16:05:54.583Z,10.90
2017-12-01T16:08:22.405Z,12.17
2017-12-01T16:10:50.242Z,11.90
2017-12-01T16:13:17.968Z,10.70
2017-12-01T16:15:45.614Z,11.60
2017-12-01T16:18:13.318Z,10.90
2017-12-01T16:20:40.981Z,10.50
2017-12-01T16:23:08.744Z,11.37
2017-12-01T16:25:36.447Z,9.63
2017-12-01T16:28:04.164Z,10.97
2017-12-01T16:30:31.925Z,10.17
2017-12-01T16:33:08.248Z,10.60
2017-12-01T16:35:27.396Z,10.50
2017-12-01T16:37:55.140Z,10.00
2017-12-01T16:40:22.847Z,9.63
2017-12-01T16:42:50.537Z,10.10
2017-12-01T16:45:18.248Z,11.13
2017-12-01T16:47:45.996Z,10.13
2017-12-01T16:50:13.709Z,10.40
2017-12-01T16:52:41.428Z,10.13
2017-12-01T16:55:09.165Z,9.53
2017-12-01T16:57:36.941Z,10.43
2017-12-01T17:00:04.708Z,10.60
2017-12-01T17:02:32.483Z,9.60
2017-12-01T17:05:00.180Z,9.00
2017-12-01T17:07:27.984Z,8.90
2017-12-01T17:09:55.725Z,8.80
2017-12-01T17:12:23.465Z,8.33
2017-12-01T17:14:51.144Z,7.30
2017-12-01T17:17:18.897Z,7.73
2017-12-01T17:19:46.526Z,7.70
2017-12-01T17:22:14.293Z,6.23
2017-12-01T17:24:41.996Z,5.53
2017-12-01T17:27:09.673Z,6.03
2017-12-01T17:29:37.360Z,6.77
2017-12-01T17:32:04.988Z,5.93
2017-12-01T17:34:32.677Z,5.90
2017-12-01T17:37:00.383Z,6.70
2017-12-01T17:39:28.157Z,5.87
2017-12-01T17:41:55.797Z,7.00
2017-12-01T17:44:23.480Z,6.57
2017-12-01T17:46:51.114Z,6.83
2017-12-01T17:49:18.818Z,6.30
2017-12-01T17:51:46.536Z,6.50
2017-12-01T17:54:14.288Z,6.20
2017-12-01T17:56:41.948Z,6.90
2017-12-01T17:59:09.635Z,6.07
2017-12-01T18:01:37.262Z,5.77
2017-12-01T18:04:05.023Z,7.07
2017-12-01T18:06:32.679Z,6.90
2017-12-01T18:09:00.386Z,6.40
2017-12-01T18:11:28.019Z,6.93
2017-12-01T18:13:55.725Z,5.90
2017-12-01T18:16:23.372Z,5.90
2017-12-01T18:18:51.051Z,6.13
2017-12-01T18:21:18.704Z,6.33
2017-12-01T18:23:46.417Z,6.80
2017-12-01T18:26:14.054Z,5.93
2017-12-01T18:28:41.745Z,6.00
2017-12-01T18:31:10.010Z,5.67
2017-12-01T18:33:37.790Z,6.77
2017-12-01T18:36:05.446Z,5.40
2017-12-01T18:38:33.134Z,5.97
2017-12-01T18:41:00.785Z,6.13
2017-12-01T18:43:28.481Z,5.43
2017-12-01T18:45:56.111Z,5.37
2017-12-01T18:48:23.782Z,6.07
2017-12-01T18:50:51.417Z,5.53
2017-12-01T18:53:19.136Z,6.80
2017-12-01T18:55:46.791Z,5.53
2017-12-01T18:58:14.524Z,6.80
2017-12-01T19:00:42.227Z,7.23
2017-12-01T19:03:09.911Z,5.90
2017-12-01T19:05:40.315Z,7.07
2017-12-01T19:08:08.665Z,6.30
2017-12-01T19:10:36.432Z,6.40
2017-12-01T19:13:04.248Z,6.07
2017-12-01T19:15:31.933Z,6.63
2017-12-01T19:20:35.973Z,6.83
2017-12-01T19:23:03.628Z,5.97
2017-12-01T19:25:31.355Z,5.97
2017-12-01T19:27:58.995Z,7.00
2017-12-01T19:30:26.725Z,6.97
2017-12-01T19:32:54.392Z,6.37
2017-12-01T19:35:22.176Z,6.13
2017-12-01T19:37:49.813Z,5.90
2017-12-01T19:40:17.574Z,6.80
2017-12-01T19:42:45.285Z,6.20
2017-12-01T19:45:13.052Z,5.77
2017-12-01T19:47:40.768Z,6.20
2017-12-01T19:50:08.569Z,6.60
2017-12-01T19:52:36.393Z,6.10
2017-12-01T19:55:04.386Z,6.50
2017-12-01T19:57:32.270Z,6.50
2017-12-01T20:00:00.096Z,6.50
2017-12-01T20:02:27.953Z,6.20
2017-12-01T20:04:55.843Z,6.70
2017-12-01T20:07:23.572Z,6.30
2017-12-01T20:09:51.321Z,6.10
2017-12-01T20:12:19.044Z,6.87
2017-12-01T20:14:46.804Z,6.90
2017-12-01T20:17:14.535Z,6.70
2017-12-01T20:19:42.312Z,6.70
2017-12-01T20:22:10.020Z,7.30
2017-12-01T20:24:37.779Z,7.20
2017-12-01T20:27:05.464Z,7.30
2017-12-01T20:29:33.257Z,7.90
2017-12-01T20:32:00.982Z,7.07
2017-12-01T20:34:28.831Z,6.37
2017-12-01T20:36:56.477Z,8.00
2017-12-01T20:39:24.238Z,6.93
2017-12-01T20:41:51.985Z,7.80
2017-12-01T20:44:19.808Z,8.80
2017-12-01T20:46:47.521Z,7.97
2017-12-01T20:49:15.289Z,5.90
2017-12-01T20:51:43.060Z,6.20
2017-12-01T20:54:10.825Z,6.67
2017-12-01T20:56:38.551Z,6.33
2017-12-01T20:59:06.313Z,7.00
2017-12-01T21:01:34.088Z,8.00
2017-12-01T21:04:01.814Z,9.70
2017-12-01T21:06:29.571Z,12.83
2017-12-01T21:08:57.216Z,12.37
2017-12-01T21:11:24.899Z,11.97
2017-12-01T21:13:52.611Z,10.30
2017-12-01T21:16:20.368Z,9.30
2017-12-01T21:18:48.095Z,9.70
2017-12-01T21:21:15.878Z,7.50
2017-12-01T21:23:43.657Z,7.47
2017-12-01T21:26:11.355Z,7.00
2017-12-01T21:28:39.119Z,8.40
2017-12-01T21:31:06.916Z,11.43
2017-12-01T21:33:34.701Z,11.00
2017-12-01T21:36:02.478Z,11.20
2017-12-01T21:38:30.207Z,6.73
2017-12-01T21:40:57.964Z,6.77
2017-12-01T21:43:25.688Z,7.07
2017-12-01T21:45:53.463Z,6.80
2017-12-01T21:48:21.217Z,7.50
2017-12-01T21:50:49.007Z,6.93
2017-12-01T21:53:16.708Z,7.03
2017-12-01T21:55:44.457Z,6.60
2017-12-01T21:58:12.202Z,10.10
2017-12-01T22:00:39.944Z,9.77
2017-12-01T22:03:07.630Z,9.00
2017-12-01T22:05:35.349Z,10.80
2017-12-01T22:08:03.048Z,9.70
2017-12-01T22:10:30.749Z,9.50
2017-12-01T22:12:58.444Z,8.60
2017-12-01T22:15:26.229Z,8.90
2017-12-01T22:17:53.949Z,8.47
2017-12-01T22:20:21.732Z,8.07
2017-12-01T22:22:49.465Z,8.63
2017-12-01T22:25:17.163Z,9.87
2017-12-01T22:27:44.902Z,9.20
2017-12-01T22:30:12.706Z,9.93
2017-12-01T22:32:40.378Z,10.80
2017-12-01T22:35:08.081Z,10.63
2017-12-01T22:37:35.787Z,10.60
2017-12-01T22:40:03.512Z,10.70
2017-12-01T22:42:31.242Z,10.67
2017-12-01T22:44:58.931Z,8.80
2017-12-01T22:47:26.652Z,9.20
2017-12-01T22:49:54.356Z,8.40
2017-12-01T22:52:22.110Z,10.43
2017-12-01T22:54:49.766Z,10.30
2017-12-01T22:57:17.503Z,10.23
2017-12-01T22:59:45.208Z,10.70
2017-12-01T23:02:12.946Z,9.20
2017-12-01T23:04:40.659Z,8.60
2017-12-01T23:07:08.351Z,8.17
2017-12-01T23:09:36.036Z,8.70
2017-12-01T23:12:03.701Z,8.70
2017-12-01T23:14:31.346Z,8.80
2017-12-01T23:16:59.067Z,8.67
2017-12-01T23:19:26.689Z,9.13
2017-12-01T23:21:54.424Z,9.50
2017-12-01T23:24:22.066Z,8.70
2017-12-01T23:26:49.747Z,9.17
2017-12-01T23:29:17.368Z,8.90
2017-12-01T23:31:45.127Z,8.00
2017-12-01T23:34:12.833Z,8.33
2017-12-01T23:36:40.588Z,8.80
2017-12-01T23:39:08.328Z,7.90
2017-12-01T23:41:36.061Z,8.20
2017-12-01T23:44:03.762Z,7.37
2017-12-01T23:46:31.509Z,8.60
2017-12-01T23:48:59.206Z,9.80
2017-12-01T23:51:26.878Z,9.07
2017-12-01T23:53:54.581Z,8.90
2017-12-01T23:56:22.333Z,9.10
2017-12-01T23:58:50.013Z,9.10
